sensor_id;sensor_type;location;lat;lon;timestamp;P1;P2;P0
63662;PMS5003;49815;51.618;0.336;2022-11-18T00:00:30;3;3;
63662;PMS5003;49815;51.618;0.336;2022-11-18T00:02:56;3;3;
63662;PMS5003;49815;51.618;0.336;2022-11-18T00:05:21;3;3;
63662;PMS5003;49815;51.618;0.336;2022-11-18T00:07:47;4;3;
63662;PMS5003;49815;51.618;0.336;2022-11-18T00:10:12;4;4;
63662;PMS5003;49815;51.618;0.336;2022-11-18T00:12:38;3;3;
63662;PMS5003;49815;51.618;0.336;2022-11-18T00:15:03;5;4;
63662;PMS5003;49815;51.618;0.336;2022-11-18T00:17:30;5;5;
63662;PMS5003;49815;51.618;0.336;2022-11-18T00:19:54;5;3;
63662;PMS5003;49815;51.618;0.336;2022-11-18T00:22:20;3;3;
63662;PMS5003;49815;51.618;0.336;2022-11-18T00:24:45;3;3;
63662;PMS5003;49815;51.618;0.336;2022-11-18T00:27:11;6;4;
63662;PMS5003;49815;51.618;0.336;2022-11-18T00:29:36;2;2;
63662;PMS5003;49815;51.618;0.336;2022-11-18T00:32:02;2;2;
63662;PMS5003;49815;51.618;0.336;2022-11-18T00:34:27;5;3;
63662;PMS5003;49815;51.618;0.336;2022-11-18T00:36:53;5;4;
63662;PMS5003;49815;51.618;0.336;2022-11-18T00:39:18;10;5;
63662;PMS5003;49815;51.618;0.336;2022-11-18T00:41:44;3;3;
63662;PMS5003;49815;51.618;0.336;2022-11-18T00:44:09;5;3;
63662;PMS5003;49815;51.618;0.336;2022-11-18T00:46:35;5;4;
63662;PMS5003;49815;51.618;0.336;2022-11-18T00:49:00;2;2;
63662;PMS5003;49815;51.618;0.336;2022-11-18T00:51:26;5;3;
63662;PMS5003;49815;51.618;0.336;2022-11-18T00:53:51;7;6;
63662;PMS5003;49815;51.618;0.336;2022-11-18T00:56:17;3;3;
63662;PMS5003;49815;51.618;0.336;2022-11-18T00:58:43;6;3;
63662;PMS5003;49815;51.618;0.336;2022-11-18T01:01:08;3;3;
63662;PMS5003;49815;51.618;0.336;2022-11-18T01:03:33;3;3;
63662;PMS5003;49815;51.618;0.336;2022-11-18T01:05:59;4;3;
63662;PMS5003;49815;51.618;0.336;2022-11-18T01:08:24;4;3;
63662;PMS5003;49815;51.618;0.336;2022-11-18T01:10:50;3;3;
63662;PMS5003;49815;51.618;0.336;2022-11-18T01:13:16;4;3;
63662;PMS5003;49815;51.618;0.336;2022-11-18T01:15:42;4;4;
63662;PMS5003;49815;51.618;0.336;2022-11-18T01:18:06;5;3;
63662;PMS5003;49815;51.618;0.336;2022-11-18T01:20:32;6;5;
63662;PMS5003;49815;51.618;0.336;2022-11-18T01:22:57;5;5;
63662;PMS5003;49815;51.618;0.336;2022-11-18T01:25:23;2;2;
63662;PMS5003;49815;51.618;0.336;2022-11-18T01:27:49;5;3;
63662;PMS5003;49815;51.618;0.336;2022-11-18T01:30:14;5;4;
63662;PMS5003;49815;51.618;0.336;2022-11-18T01:32:40;6;3;
63662;PMS5003;49815;51.618;0.336;2022-11-18T01:35:05;2;2;
63662;PMS5003;49815;51.618;0.336;2022-11-18T01:37:30;3;2;
63662;PMS5003;49815;51.618;0.336;2022-11-18T01:39:56;2;2;
63662;PMS5003;49815;51.618;0.336;2022-11-18T01:42:22;6;5;
63662;PMS5003;49815;51.618;0.336;2022-11-18T01:44:54;3;3;
63662;PMS5003;49815;51.618;0.336;2022-11-18T01:47:13;4;4;
63662;PMS5003;49815;51.618;0.336;2022-11-18T01:49:38;2;2;
63662;PMS5003;49815;51.618;0.336;2022-11-18T01:52:03;3;2;
63662;PMS5003;49815;51.618;0.336;2022-11-18T01:54:30;5;3;
63662;PMS5003;49815;51.618;0.336;2022-11-18T01:56:56;3;2;
63662;PMS5003;49815;51.618;0.336;2022-11-18T01:59:21;3;2;
63662;PMS5003;49815;51.618;0.336;2022-11-18T02:01:46;3;3;
63662;PMS5003;49815;51.618;0.336;2022-11-18T02:04:11;3;2;
63662;PMS5003;49815;51.618;0.336;2022-11-18T02:06:37;3;3;
63662;PMS5003;49815;51.618;0.336;2022-11-18T02:09:02;4;2;
63662;PMS5003;49815;51.618;0.336;2022-11-18T02:11:28;2;2;
63662;PMS5003;49815;51.618;0.336;2022-11-18T02:13:53;3;3;
63662;PMS5003;49815;51.618;0.336;2022-11-18T02:16:19;3;3;
63662;PMS5003;49815;51.618;0.336;2022-11-18T02:18:45;4;3;
63662;PMS5003;49815;51.618;0.336;2022-11-18T02:21:13;4;2;
63662;PMS5003;49815;51.618;0.336;2022-11-18T02:23:42;4;3;
63662;PMS5003;49815;51.618;0.336;2022-11-18T02:26:04;2;2;
63662;PMS5003;49815;51.618;0.336;2022-11-18T02:28:30;3;3;
63662;PMS5003;49815;51.618;0.336;2022-11-18T02:30:52;4;4;
63662;PMS5003;49815;51.618;0.336;2022-11-18T02:33:19;2;2;
63662;PMS5003;49815;51.618;0.336;2022-11-18T02:35:43;2;2;
63662;PMS5003;49815;51.618;0.336;2022-11-18T02:38:08;3;2;
63662;PMS5003;49815;51.618;0.336;2022-11-18T02:40:34;5;3;
63662;PMS5003;49815;51.618;0.336;2022-11-18T02:43:00;3;3;
63662;PMS5003;49815;51.618;0.336;2022-11-18T02:45:25;4;3;
63662;PMS5003;49815;51.618;0.336;2022-11-18T02:47:50;3;3;
63662;PMS5003;49815;51.618;0.336;2022-11-18T02:50:16;3;3;
63662;PMS5003;49815;51.618;0.336;2022-11-18T02:52:41;4;3;
63662;PMS5003;49815;51.618;0.336;2022-11-18T02:55:08;2;2;
63662;PMS5003;49815;51.618;0.336;2022-11-18T02:57:32;5;4;
63662;PMS5003;49815;51.618;0.336;2022-11-18T02:59:58;3;2;
63662;PMS5003;49815;51.618;0.336;2022-11-18T03:02:23;4;4;
63662;PMS5003;49815;51.618;0.336;2022-11-18T03:04:50;3;3;
63662;PMS5003;49815;51.618;0.336;2022-11-18T03:07:15;4;2;
63662;PMS5003;49815;51.618;0.336;2022-11-18T03:09:40;5;3;
63662;PMS5003;49815;51.618;0.336;2022-11-18T03:12:08;2;2;
63662;PMS5003;49815;51.618;0.336;2022-11-18T03:14:32;3;3;
63662;PMS5003;49815;51.618;0.336;2022-11-18T03:16:57;2;2;
63662;PMS5003;49815;51.618;0.336;2022-11-18T03:19:23;2;2;
63662;PMS5003;49815;51.618;0.336;2022-11-18T03:21:50;3;2;
63662;PMS5003;49815;51.618;0.336;2022-11-18T03:24:13;5;3;
63662;PMS5003;49815;51.618;0.336;2022-11-18T03:26:38;1;1;
63662;PMS5003;49815;51.618;0.336;2022-11-18T03:29:05;5;3;
63662;PMS5003;49815;51.618;0.336;2022-11-18T03:31:30;2;2;
63662;PMS5003;49815;51.618;0.336;2022-11-18T03:33:55;10;8;
63662;PMS5003;49815;51.618;0.336;2022-11-18T03:36:21;4;2;
63662;PMS5003;49815;51.618;0.336;2022-11-18T03:38:46;3;2;
63662;PMS5003;49815;51.618;0.336;2022-11-18T03:41:11;4;3;
63662;PMS5003;49815;51.618;0.336;2022-11-18T03:43:38;5;4;
63662;PMS5003;49815;51.618;0.336;2022-11-18T03:46:04;3;2;
63662;PMS5003;49815;51.618;0.336;2022-11-18T03:48:28;2;2;
63662;PMS5003;49815;51.618;0.336;2022-11-18T03:50:54;3;3;
63662;PMS5003;49815;51.618;0.336;2022-11-18T03:53:19;5;2;
63662;PMS5003;49815;51.618;0.336;2022-11-18T03:55:45;3;3;
63662;PMS5003;49815;51.618;0.336;2022-11-18T03:58:11;2;2;
63662;PMS5003;49815;51.618;0.336;2022-11-18T04:00:36;3;3;
63662;PMS5003;49815;51.618;0.336;2022-11-18T04:03:01;4;2;
63662;PMS5003;49815;51.618;0.336;2022-11-18T04:05:26;3;2;
63662;PMS5003;49815;51.618;0.336;2022-11-18T04:07:54;1;1;
63662;PMS5003;49815;51.618;0.336;2022-11-18T04:10:19;3;3;
63662;PMS5003;49815;51.618;0.336;2022-11-18T04:12:44;2;2;
63662;PMS5003;49815;51.618;0.336;2022-11-18T04:15:08;4;2;
63662;PMS5003;49815;51.618;0.336;2022-11-18T04:17:34;3;3;
63662;PMS5003;49815;51.618;0.336;2022-11-18T04:20:00;1;1;
63662;PMS5003;49815;51.618;0.336;2022-11-18T04:22:25;4;2;
63662;PMS5003;49815;51.618;0.336;2022-11-18T04:24:50;6;3;
63662;PMS5003;49815;51.618;0.336;2022-11-18T04:27:15;3;2;
63662;PMS5003;49815;51.618;0.336;2022-11-18T04:29:41;3;1;
63662;PMS5003;49815;51.618;0.336;2022-11-18T04:32:06;4;4;
63662;PMS5003;49815;51.618;0.336;2022-11-18T04:34:32;2;2;
63662;PMS5003;49815;51.618;0.336;2022-11-18T04:36:57;4;3;
63662;PMS5003;49815;51.618;0.336;2022-11-18T04:39:23;3;3;
63662;PMS5003;49815;51.618;0.336;2022-11-18T04:41:48;2;2;
63662;PMS5003;49815;51.618;0.336;2022-11-18T04:44:14;2;2;
63662;PMS5003;49815;51.618;0.336;2022-11-18T04:46:39;4;4;
63662;PMS5003;49815;51.618;0.336;2022-11-18T04:49:05;3;2;
63662;PMS5003;49815;51.618;0.336;2022-11-18T04:51:30;2;2;
63662;PMS5003;49815;51.618;0.336;2022-11-18T04:53:55;4;2;
63662;PMS5003;49815;51.618;0.336;2022-11-18T04:56:21;1;1;
63662;PMS5003;49815;51.618;0.336;2022-11-18T04:58:46;2;2;
63662;PMS5003;49815;51.618;0.336;2022-11-18T05:01:12;2;2;
63662;PMS5003;49815;51.618;0.336;2022-11-18T05:03:37;4;2;
63662;PMS5003;49815;51.618;0.336;2022-11-18T05:06:03;2;2;
63662;PMS5003;49815;51.618;0.336;2022-11-18T05:08:30;1;1;
63662;PMS5003;49815;51.618;0.336;2022-11-18T05:10:54;1;1;
63662;PMS5003;49815;51.618;0.336;2022-11-18T05:13:20;2;2;
63662;PMS5003;49815;51.618;0.336;2022-11-18T05:15:45;3;3;
63662;PMS5003;49815;51.618;0.336;2022-11-18T05:18:10;3;3;
63662;PMS5003;49815;51.618;0.336;2022-11-18T05:20:36;3;1;
63662;PMS5003;49815;51.618;0.336;2022-11-18T05:23:01;2;2;
63662;PMS5003;49815;51.618;0.336;2022-11-18T05:25:27;2;2;
63662;PMS5003;49815;51.618;0.336;2022-11-18T05:27:52;2;2;
63662;PMS5003;49815;51.618;0.336;2022-11-18T05:30:18;2;2;
63662;PMS5003;49815;51.618;0.336;2022-11-18T05:32:44;2;2;
63662;PMS5003;49815;51.618;0.336;2022-11-18T05:35:09;3;2;
63662;PMS5003;49815;51.618;0.336;2022-11-18T05:37:34;3;3;
63662;PMS5003;49815;51.618;0.336;2022-11-18T05:40:00;7;3;
63662;PMS5003;49815;51.618;0.336;2022-11-18T05:42:25;1;1;
63662;PMS5003;49815;51.618;0.336;2022-11-18T05:44:51;2;2;
63662;PMS5003;49815;51.618;0.336;2022-11-18T05:47:16;1;1;
63662;PMS5003;49815;51.618;0.336;2022-11-18T05:49:42;4;2;
63662;PMS5003;49815;51.618;0.336;2022-11-18T05:52:07;2;2;
63662;PMS5003;49815;51.618;0.336;2022-11-18T05:54:33;3;2;
63662;PMS5003;49815;51.618;0.336;2022-11-18T05:56:58;2;2;
63662;PMS5003;49815;51.618;0.336;2022-11-18T05:59:24;5;2;
63662;PMS5003;49815;51.618;0.336;2022-11-18T06:01:51;3;3;
63662;PMS5003;49815;51.618;0.336;2022-11-18T06:04:16;3;3;
63662;PMS5003;49815;51.618;0.336;2022-11-18T06:06:40;2;2;
63662;PMS5003;49815;51.618;0.336;2022-11-18T06:09:06;1;1;
63662;PMS5003;49815;51.618;0.336;2022-11-18T06:11:32;3;3;
63662;PMS5003;49815;51.618;0.336;2022-11-18T06:13:58;4;2;
63662;PMS5003;49815;51.618;0.336;2022-11-18T06:16:22;1;1;
63662;PMS5003;49815;51.618;0.336;2022-11-18T06:18:47;2;2;
63662;PMS5003;49815;51.618;0.336;2022-11-18T06:21:13;4;3;
63662;PMS5003;49815;51.618;0.336;2022-11-18T06:23:39;4;2;
63662;PMS5003;49815;51.618;0.336;2022-11-18T06:26:04;3;3;
63662;PMS5003;49815;51.618;0.336;2022-11-18T06:28:29;2;2;
63662;PMS5003;49815;51.618;0.336;2022-11-18T06:30:55;3;2;
63662;PMS5003;49815;51.618;0.336;2022-11-18T06:33:20;3;1;
63662;PMS5003;49815;51.618;0.336;2022-11-18T06:35:46;2;2;
63662;PMS5003;49815;51.618;0.336;2022-11-18T06:38:12;2;2;
63662;PMS5003;49815;51.618;0.336;2022-11-18T06:40:37;2;2;
63662;PMS5003;49815;51.618;0.336;2022-11-18T06:43:04;2;1;
63662;PMS5003;49815;51.618;0.336;2022-11-18T06:45:28;2;2;
63662;PMS5003;49815;51.618;0.336;2022-11-18T06:47:55;2;2;
63662;PMS5003;49815;51.618;0.336;2022-11-18T06:50:19;3;2;
63662;PMS5003;49815;51.618;0.336;2022-11-18T06:52:44;2;2;
63662;PMS5003;49815;51.618;0.336;2022-11-18T06:55:10;2;1;
63662;PMS5003;49815;51.618;0.336;2022-11-18T06:57:36;3;3;
63662;PMS5003;49815;51.618;0.336;2022-11-18T07:00:01;2;2;
63662;PMS5003;49815;51.618;0.336;2022-11-18T07:02:27;2;2;
63662;PMS5003;49815;51.618;0.336;2022-11-18T07:04:52;4;2;
63662;PMS5003;49815;51.618;0.336;2022-11-18T07:07:17;2;2;
63662;PMS5003;49815;51.618;0.336;2022-11-18T07:09:43;2;2;
63662;PMS5003;49815;51.618;0.336;2022-11-18T07:12:08;3;3;
63662;PMS5003;49815;51.618;0.336;2022-11-18T07:14:34;2;2;
63662;PMS5003;49815;51.618;0.336;2022-11-18T07:16:59;3;1;
63662;PMS5003;49815;51.618;0.336;2022-11-18T07:19:25;4;3;
63662;PMS5003;49815;51.618;0.336;2022-11-18T07:21:50;2;2;
63662;PMS5003;49815;51.618;0.336;2022-11-18T07:24:16;4;3;
63662;PMS5003;49815;51.618;0.336;2022-11-18T07:26:41;3;2;
63662;PMS5003;49815;51.618;0.336;2022-11-18T07:29:07;3;3;
63662;PMS5003;49815;51.618;0.336;2022-11-18T07:31:32;6;3;
63662;PMS5003;49815;51.618;0.336;2022-11-18T07:33:58;2;2;
63662;PMS5003;49815;51.618;0.336;2022-11-18T07:36:24;1;1;
63662;PMS5003;49815;51.618;0.336;2022-11-18T07:38:49;2;2;
63662;PMS5003;49815;51.618;0.336;2022-11-18T07:41:14;2;2;
63662;PMS5003;49815;51.618;0.336;2022-11-18T07:43:40;1;1;
63662;PMS5003;49815;51.618;0.336;2022-11-18T07:46:09;5;3;
63662;PMS5003;49815;51.618;0.336;2022-11-18T07:48:30;2;2;
63662;PMS5003;49815;51.618;0.336;2022-11-18T07:50:59;3;3;
63662;PMS5003;49815;51.618;0.336;2022-11-18T07:53:21;4;2;
63662;PMS5003;49815;51.618;0.336;2022-11-18T07:55:47;3;2;
63662;PMS5003;49815;51.618;0.336;2022-11-18T07:58:12;7;3;
63662;PMS5003;49815;51.618;0.336;2022-11-18T08:00:38;4;2;
63662;PMS5003;49815;51.618;0.336;2022-11-18T08:03:03;1;1;
63662;PMS5003;49815;51.618;0.336;2022-11-18T08:05:29;5;3;
63662;PMS5003;49815;51.618;0.336;2022-11-18T08:07:54;3;3;
63662;PMS5003;49815;51.618;0.336;2022-11-18T08:10:20;2;2;
63662;PMS5003;49815;51.618;0.336;2022-11-18T08:12:45;2;2;
63662;PMS5003;49815;51.618;0.336;2022-11-18T08:15:11;2;2;
63662;PMS5003;49815;51.618;0.336;2022-11-18T08:17:36;2;2;
63662;PMS5003;49815;51.618;0.336;2022-11-18T08:20:02;1;1;
63662;PMS5003;49815;51.618;0.336;2022-11-18T08:22:27;2;2;
63662;PMS5003;49815;51.618;0.336;2022-11-18T08:24:52;2;2;
63662;PMS5003;49815;51.618;0.336;2022-11-18T08:27:18;5;3;
63662;PMS5003;49815;51.618;0.336;2022-11-18T08:29:43;4;3;
63662;PMS5003;49815;51.618;0.336;2022-11-18T08:32:08;5;3;
63662;PMS5003;49815;51.618;0.336;2022-11-18T08:34:39;2;2;
63662;PMS5003;49815;51.618;0.336;2022-11-18T08:36:59;6;4;
63662;PMS5003;49815;51.618;0.336;2022-11-18T08:39:24;2;2;
63662;PMS5003;49815;51.618;0.336;2022-11-18T08:41:50;3;3;
63662;PMS5003;49815;51.618;0.336;2022-11-18T08:44:15;2;2;
63662;PMS5003;49815;51.618;0.336;2022-11-18T08:46:41;3;3;
63662;PMS5003;49815;51.618;0.336;2022-11-18T08:49:06;5;4;
63662;PMS5003;49815;51.618;0.336;2022-11-18T08:51:32;3;3;
63662;PMS5003;49815;51.618;0.336;2022-11-18T08:53:57;5;3;
63662;PMS5003;49815;51.618;0.336;2022-11-18T08:56:23;7;3;
63662;PMS5003;49815;51.618;0.336;2022-11-18T08:58:48;5;4;
63662;PMS5003;49815;51.618;0.336;2022-11-18T09:01:14;4;4;
63662;PMS5003;49815;51.618;0.336;2022-11-18T09:03:39;11;9;
63662;PMS5003;49815;51.618;0.336;2022-11-18T09:06:05;8;8;
63662;PMS5003;49815;51.618;0.336;2022-11-18T09:08:30;18;18;
63662;PMS5003;49815;51.618;0.336;2022-11-18T09:10:55;5;3;
63662;PMS5003;49815;51.618;0.336;2022-11-18T09:13:21;3;3;
63662;PMS5003;49815;51.618;0.336;2022-11-18T09:15:46;3;2;
63662;PMS5003;49815;51.618;0.336;2022-11-18T09:18:12;13;10;
63662;PMS5003;49815;51.618;0.336;2022-11-18T09:20:37;14;14;
63662;PMS5003;49815;51.618;0.336;2022-11-18T09:23:03;20;20;
63662;PMS5003;49815;51.618;0.336;2022-11-18T09:25:28;11;10;
63662;PMS5003;49815;51.618;0.336;2022-11-18T09:27:54;18;15;
63662;PMS5003;49815;51.618;0.336;2022-11-18T09:30:19;16;16;
63662;PMS5003;49815;51.618;0.336;2022-11-18T09:32:45;19;17;
63662;PMS5003;49815;51.618;0.336;2022-11-18T09:35:10;13;13;
63662;PMS5003;49815;51.618;0.336;2022-11-18T09:37:36;13;11;
63662;PMS5003;49815;51.618;0.336;2022-11-18T09:40:01;9;8;
63662;PMS5003;49815;51.618;0.336;2022-11-18T09:42:30;10;8;
63662;PMS5003;49815;51.618;0.336;2022-11-18T09:44:57;9;8;
63662;PMS5003;49815;51.618;0.336;2022-11-18T09:47:21;6;6;
63662;PMS5003;49815;51.618;0.336;2022-11-18T09:49:43;5;5;
63662;PMS5003;49815;51.618;0.336;2022-11-18T09:52:10;5;5;
63662;PMS5003;49815;51.618;0.336;2022-11-18T09:54:34;5;5;
63662;PMS5003;49815;51.618;0.336;2022-11-18T09:56:59;6;3;
63662;PMS5003;49815;51.618;0.336;2022-11-18T09:59:26;5;5;
63662;PMS5003;49815;51.618;0.336;2022-11-18T10:01:51;45;43;
63662;PMS5003;49815;51.618;0.336;2022-11-18T10:04:17;64;64;
63662;PMS5003;49815;51.618;0.336;2022-11-18T10:06:42;48;47;
63662;PMS5003;49815;51.618;0.336;2022-11-18T10:09:10;43;42;
63662;PMS5003;49815;51.618;0.336;2022-11-18T10:11:34;42;41;
63662;PMS5003;49815;51.618;0.336;2022-11-18T10:13:59;53;53;
63662;PMS5003;49815;51.618;0.336;2022-11-18T10:16:29;103;102;
63662;PMS5003;49815;51.618;0.336;2022-11-18T10:18:51;108;107;
63662;PMS5003;49815;51.618;0.336;2022-11-18T10:21:17;28;26;
63662;PMS5003;49815;51.618;0.336;2022-11-18T10:23:42;45;45;
63662;PMS5003;49815;51.618;0.336;2022-11-18T10:26:06;11;11;
63662;PMS5003;49815;51.618;0.336;2022-11-18T10:28:31;21;19;
63662;PMS5003;49815;51.618;0.336;2022-11-18T10:33:24;41;39;
63662;PMS5003;49815;51.618;0.336;2022-11-18T10:35:48;23;23;
63662;PMS5003;49815;51.618;0.336;2022-11-18T10:38:16;22;21;
63662;PMS5003;49815;51.618;0.336;2022-11-18T10:40:41;23;23;
63662;PMS5003;49815;51.618;0.336;2022-11-18T10:43:04;24;22;
63662;PMS5003;49815;51.618;0.336;2022-11-18T10:45:30;26;26;
63662;PMS5003;49815;51.618;0.336;2022-11-18T10:47:56;16;16;
63662;PMS5003;49815;51.618;0.336;2022-11-18T10:50:27;11;9;
63662;PMS5003;49815;51.618;0.336;2022-11-18T10:52:50;12;12;
63662;PMS5003;49815;51.618;0.336;2022-11-18T10:55:18;4;4;
63662;PMS5003;49815;51.618;0.336;2022-11-18T10:57:39;5;3;
63662;PMS5003;49815;51.618;0.336;2022-11-18T11:00:03;2;1;
63662;PMS5003;49815;51.618;0.336;2022-11-18T11:02:28;3;3;
63662;PMS5003;49815;51.618;0.336;2022-11-18T11:04:53;2;1;
63662;PMS5003;49815;51.618;0.336;2022-11-18T11:07:23;3;3;
63662;PMS5003;49815;51.618;0.336;2022-11-18T11:09:44;3;2;
63662;PMS5003;49815;51.618;0.336;2022-11-18T11:12:11;2;2;
63662;PMS5003;49815;51.618;0.336;2022-11-18T11:14:35;6;3;
63662;PMS5003;49815;51.618;0.336;2022-11-18T11:17:02;2;2;
63662;PMS5003;49815;51.618;0.336;2022-11-18T11:19:28;4;3;
63662;PMS5003;49815;51.618;0.336;2022-11-18T11:21:51;1;1;
63662;PMS5003;49815;51.618;0.336;2022-11-18T11:24:16;3;3;
63662;PMS5003;49815;51.618;0.336;2022-11-18T11:26:45;6;3;
63662;PMS5003;49815;51.618;0.336;2022-11-18T11:29:09;2;2;
63662;PMS5003;49815;51.618;0.336;2022-11-18T11:31:34;3;3;
63662;PMS5003;49815;51.618;0.336;2022-11-18T11:33:58;2;2;
63662;PMS5003;49815;51.618;0.336;2022-11-18T11:36:26;4;2;
63662;PMS5003;49815;51.618;0.336;2022-11-18T11:38:52;2;2;
63662;PMS5003;49815;51.618;0.336;2022-11-18T11:41:16;5;2;
63662;PMS5003;49815;51.618;0.336;2022-11-18T11:43:43;4;2;
63662;PMS5003;49815;51.618;0.336;2022-11-18T11:46:08;3;2;
63662;PMS5003;49815;51.618;0.336;2022-11-18T11:48:33;1;1;
63662;PMS5003;49815;51.618;0.336;2022-11-18T11:50:57;3;3;
63662;PMS5003;49815;51.618;0.336;2022-11-18T11:53:24;2;2;
63662;PMS5003;49815;51.618;0.336;2022-11-18T11:55:50;3;3;
63662;PMS5003;49815;51.618;0.336;2022-11-18T11:58:16;2;2;
63662;PMS5003;49815;51.618;0.336;2022-11-18T12:00:38;3;3;
63662;PMS5003;49815;51.618;0.336;2022-11-18T12:03:06;3;3;
63662;PMS5003;49815;51.618;0.336;2022-11-18T12:05:30;5;4;
63662;PMS5003;49815;51.618;0.336;2022-11-18T12:07:54;8;5;
63662;PMS5003;49815;51.618;0.336;2022-11-18T12:10:24;3;3;
63662;PMS5003;49815;51.618;0.336;2022-11-18T12:12:45;4;3;
63662;PMS5003;49815;51.618;0.336;2022-11-18T12:15:13;4;3;
63662;PMS5003;49815;51.618;0.336;2022-11-18T12:17:37;4;2;
63662;PMS5003;49815;51.618;0.336;2022-11-18T12:24:51;3;3;
63662;PMS5003;49815;51.618;0.336;2022-11-18T12:29:51;4;3;
63662;PMS5003;49815;51.618;0.336;2022-11-18T12:32:22;4;4;
63662;PMS5003;49815;51.618;0.336;2022-11-18T12:34:36;2;2;
63662;PMS5003;49815;51.618;0.336;2022-11-18T12:41:51;3;2;
63662;PMS5003;49815;51.618;0.336;2022-11-18T12:44:14;5;3;
63662;PMS5003;49815;51.618;0.336;2022-11-18T12:53:55;4;2;
63662;PMS5003;49815;51.618;0.336;2022-11-18T12:56:21;3;3;
63662;PMS5003;49815;51.618;0.336;2022-11-18T12:58:46;3;3;
63662;PMS5003;49815;51.618;0.336;2022-11-18T13:01:11;5;3;
63662;PMS5003;49815;51.618;0.336;2022-11-18T13:03:36;1;1;
63662;PMS5003;49815;51.618;0.336;2022-11-18T13:06:05;3;1;
63662;PMS5003;49815;51.618;0.336;2022-11-18T13:08:27;3;1;
63662;PMS5003;49815;51.618;0.336;2022-11-18T13:10:53;1;1;
63662;PMS5003;49815;51.618;0.336;2022-11-18T13:13:23;1;1;
63662;PMS5003;49815;51.618;0.336;2022-11-18T13:15:43;1;1;
63662;PMS5003;49815;51.618;0.336;2022-11-18T13:18:12;2;0;
63662;PMS5003;49815;51.618;0.336;2022-11-18T13:20:34;3;2;
63662;PMS5003;49815;51.618;0.336;2022-11-18T13:23:00;1;1;
63662;PMS5003;49815;51.618;0.336;2022-11-18T13:25:25;2;2;
63662;PMS5003;49815;51.618;0.336;2022-11-18T13:27:51;2;2;
63662;PMS5003;49815;51.618;0.336;2022-11-18T13:30:16;1;1;
63662;PMS5003;49815;51.618;0.336;2022-11-18T13:32:41;2;1;
63662;PMS5003;49815;51.618;0.336;2022-11-18T13:35:09;6;3;
63662;PMS5003;49815;51.618;0.336;2022-11-18T13:37:31;1;1;
63662;PMS5003;49815;51.618;0.336;2022-11-18T13:39:57;3;1;
63662;PMS5003;49815;51.618;0.336;2022-11-18T13:42:23;1;1;
63662;PMS5003;49815;51.618;0.336;2022-11-18T13:44:51;2;2;
63662;PMS5003;49815;51.618;0.336;2022-11-18T13:47:18;3;2;
63662;PMS5003;49815;51.618;0.336;2022-11-18T13:49:42;1;1;
63662;PMS5003;49815;51.618;0.336;2022-11-18T13:52:03;2;2;
63662;PMS5003;49815;51.618;0.336;2022-11-18T13:54:29;1;1;
63662;PMS5003;49815;51.618;0.336;2022-11-18T13:56:54;3;1;
63662;PMS5003;49815;51.618;0.336;2022-11-18T13:59:21;3;0;
63662;PMS5003;49815;51.618;0.336;2022-11-18T14:01:45;2;2;
63662;PMS5003;49815;51.618;0.336;2022-11-18T14:04:15;1;1;
63662;PMS5003;49815;51.618;0.336;2022-11-18T14:06:36;1;1;
63662;PMS5003;49815;51.618;0.336;2022-11-18T14:09:03;1;1;
63662;PMS5003;49815;51.618;0.336;2022-11-18T14:13:52;4;2;
63662;PMS5003;49815;51.618;0.336;2022-11-18T14:18:43;3;1;
63662;PMS5003;49815;51.618;0.336;2022-11-18T14:21:09;2;2;
63662;PMS5003;49815;51.618;0.336;2022-11-18T14:23:33;1;1;
63662;PMS5003;49815;51.618;0.336;2022-11-18T14:25:59;2;2;
63662;PMS5003;49815;51.618;0.336;2022-11-18T14:28:25;2;1;
63662;PMS5003;49815;51.618;0.336;2022-11-18T14:33:16;4;2;
63662;PMS5003;49815;51.618;0.336;2022-11-18T14:35:41;5;2;
63662;PMS5003;49815;51.618;0.336;2022-11-18T14:38:09;3;3;
63662;PMS5003;49815;51.618;0.336;2022-11-18T14:40:31;2;2;
63662;PMS5003;49815;51.618;0.336;2022-11-18T14:42:56;1;1;
63662;PMS5003;49815;51.618;0.336;2022-11-18T14:45:21;2;2;
63662;PMS5003;49815;51.618;0.336;2022-11-18T14:47:47;3;2;
63662;PMS5003;49815;51.618;0.336;2022-11-18T14:50:12;2;1;
63662;PMS5003;49815;51.618;0.336;2022-11-18T14:52:37;3;2;
63662;PMS5003;49815;51.618;0.336;2022-11-18T14:55:03;4;3;
63662;PMS5003;49815;51.618;0.336;2022-11-18T14:57:28;5;2;
63662;PMS5003;49815;51.618;0.336;2022-11-18T14:59:54;3;3;
63662;PMS5003;49815;51.618;0.336;2022-11-18T15:02:19;4;1;
63662;PMS5003;49815;51.618;0.336;2022-11-18T15:04:44;6;2;
63662;PMS5003;49815;51.618;0.336;2022-11-18T15:07:11;2;2;
63662;PMS5003;49815;51.618;0.336;2022-11-18T15:09:35;3;3;
63662;PMS5003;49815;51.618;0.336;2022-11-18T15:12:01;2;2;
63662;PMS5003;49815;51.618;0.336;2022-11-18T15:14:26;3;3;
63662;PMS5003;49815;51.618;0.336;2022-11-18T15:16:52;2;2;
63662;PMS5003;49815;51.618;0.336;2022-11-18T15:19:18;3;2;
63662;PMS5003;49815;51.618;0.336;2022-11-18T15:21:43;3;3;
63662;PMS5003;49815;51.618;0.336;2022-11-18T15:24:08;1;1;
63662;PMS5003;49815;51.618;0.336;2022-11-18T15:26:34;4;1;
63662;PMS5003;49815;51.618;0.336;2022-11-18T15:28:59;1;1;
63662;PMS5003;49815;51.618;0.336;2022-11-18T15:31:24;2;2;
63662;PMS5003;49815;51.618;0.336;2022-11-18T15:33:49;3;2;
63662;PMS5003;49815;51.618;0.336;2022-11-18T15:36:16;2;2;
63662;PMS5003;49815;51.618;0.336;2022-11-18T15:38:40;2;2;
63662;PMS5003;49815;51.618;0.336;2022-11-18T15:41:06;2;2;
63662;PMS5003;49815;51.618;0.336;2022-11-18T15:43:31;2;2;
63662;PMS5003;49815;51.618;0.336;2022-11-18T15:45:57;5;3;
63662;PMS5003;49815;51.618;0.336;2022-11-18T15:48:22;2;1;
63662;PMS5003;49815;51.618;0.336;2022-11-18T15:50:47;3;2;
63662;PMS5003;49815;51.618;0.336;2022-11-18T15:53:13;2;2;
63662;PMS5003;49815;51.618;0.336;2022-11-18T15:55:38;2;2;
63662;PMS5003;49815;51.618;0.336;2022-11-18T15:58:03;3;3;
63662;PMS5003;49815;51.618;0.336;2022-11-18T16:00:29;2;2;
63662;PMS5003;49815;51.618;0.336;2022-11-18T16:02:54;1;1;
63662;PMS5003;49815;51.618;0.336;2022-11-18T16:05:20;1;1;
63662;PMS5003;49815;51.618;0.336;2022-11-18T16:07:45;2;2;
63662;PMS5003;49815;51.618;0.336;2022-11-18T16:10:11;2;2;
63662;PMS5003;49815;51.618;0.336;2022-11-18T16:12:36;2;2;
63662;PMS5003;49815;51.618;0.336;2022-11-18T16:15:02;3;3;
63662;PMS5003;49815;51.618;0.336;2022-11-18T16:17:27;3;3;
63662;PMS5003;49815;51.618;0.336;2022-11-18T16:19:52;2;2;
63662;PMS5003;49815;51.618;0.336;2022-11-18T16:22:18;3;3;
63662;PMS5003;49815;51.618;0.336;2022-11-18T16:24:43;3;3;
63662;PMS5003;49815;51.618;0.336;2022-11-18T16:27:08;5;4;
63662;PMS5003;49815;51.618;0.336;2022-11-18T16:29:34;3;3;
63662;PMS5003;49815;51.618;0.336;2022-11-18T16:31:59;3;3;
63662;PMS5003;49815;51.618;0.336;2022-11-18T16:34:25;5;5;
63662;PMS5003;49815;51.618;0.336;2022-11-18T16:36:50;3;3;
63662;PMS5003;49815;51.618;0.336;2022-11-18T16:39:16;4;3;
63662;PMS5003;49815;51.618;0.336;2022-11-18T16:41:41;4;4;
63662;PMS5003;49815;51.618;0.336;2022-11-18T16:44:07;3;3;
63662;PMS5003;49815;51.618;0.336;2022-11-18T16:46:32;6;6;
63662;PMS5003;49815;51.618;0.336;2022-11-18T16:48:57;3;3;
63662;PMS5003;49815;51.618;0.336;2022-11-18T16:51:23;4;4;
63662;PMS5003;49815;51.618;0.336;2022-11-18T16:53:49;7;5;
63662;PMS5003;49815;51.618;0.336;2022-11-18T16:56:13;4;4;
63662;PMS5003;49815;51.618;0.336;2022-11-18T16:58:39;5;4;
63662;PMS5003;49815;51.618;0.336;2022-11-18T17:01:07;3;3;
63662;PMS5003;49815;51.618;0.336;2022-11-18T17:03:29;3;3;